Welcome to Northern Hawkes Bay. New Zealand.
PWS Header
      nz Flag



Hit Counter


W3C Valid W3C Valid logo


    Wairoa

Select any of the Stations below to visit their websites.










Historic Data from Weather Underground
Select the location of interest below. Wairoa is the default. Please have patience, this Data is slow to load in.
Northern Hawkes Bay Historical Data
Daily Summary for April 6, 2017 Units:  Metric    English   Both
« Previous Day
Next Day »
Daily Weekly Monthly Yearly Custom
  High: Low: Average:
Temperature: 23.2 °C 12.9 °C 18.6 °C
Dew Point: 17.6 °C 8.4 °C 11.3 °C
Humidity: 98% 43% 64%
Wind Speed: 21.9km/h 0.0km/h 8.2km/h
Wind Gust: 36.7km/h - -
Wind- - WNW
Pressure: 1009.7 hPa 1000.6 hPa -
Precipitation: 1.3 mm    
Historical Graphs
 
 
Tabular Data for April 6, 2017
Time Temperature Dew Point Pressure Wind Wind Speed Wind Gust Humidity Rainfall Rate (Hourly) solar
00:15 20.1 °C 17.5 °C 1000.6 hPa NNE 7.2 km/h 17.2 km/h 85% 0.0 mm 0 W/m2
00:21 20.3 °C 17.5 °C 1000.6 hPa NNE 13.4 km/h 18.3 km/h 84% 0.0 mm 0 W/m2
00:27 20.3 °C 17.3 °C 1000.6 hPa North 8.7 km/h 18.3 km/h 83% 0.0 mm 0 W/m2
00:33 20.4 °C 17.4 °C 1000.6 hPa NNE 11.1 km/h 23.3 km/h 83% 0.0 mm 0 W/m2
00:40 20.6 °C 17.1 °C 1000.6 hPa NNE 7.2 km/h 23.3 km/h 80% 0.0 mm 0 W/m2
00:45 20.6 °C 17.1 °C 1000.6 hPa North 6.1 km/h 21.9 km/h 80% 0.0 mm 0 W/m2
00:51 20.6 °C 17.1 °C 1000.6 hPa NNW 7.2 km/h 19.5 km/h 80% 0.0 mm 0 W/m2
00:57 20.5 °C 16.9 °C 1000.6 hPa NNW 6.1 km/h 19.5 km/h 80% 0.3 mm 0 W/m2
01:03 20.2 °C 17.2 °C 1000.9 hPa North 2.6 km/h 19.5 km/h 83% 0.3 mm 0 W/m2
01:10 20.0 °C 17.2 °C 1001.2 hPa NNW 6.1 km/h 12.2 km/h 84% 0.3 mm 0 W/m2
01:15 19.4 °C 17.2 °C 1001.6 hPa NW 2.6 km/h 12.2 km/h 87% 1.0 mm 0 W/m2
01:21 19.0 °C 17.2 °C 1001.6 hPa NNW 2.6 km/h 9.7 km/h 89% 1.0 mm 0 W/m2
01:27 18.7 °C 17.4 °C 1001.6 hPa Calm   7.2 km/h 92% 1.0 mm 0 W/m2
01:33 18.5 °C 17.6 °C 1001.2 hPa Calm   2.6 km/h 94% 1.0 mm 0 W/m2
01:40 18.3 °C 17.3 °C 1001.2 hPa Calm     94% 1.0 mm 0 W/m2
01:45 18.2 °C 17.4 °C 1001.2 hPa Calm     95% 1.0 mm 0 W/m2
01:51 18.0 °C 17.2 °C 1001.6 hPa Calm     95% 1.0 mm 0 W/m2
01:57 17.9 °C 16.9 °C 1001.6 hPa Calm     94% 0.5 mm 0 W/m2
02:03 17.8 °C 17.0 °C 1001.6 hPa Calm   2.6 km/h 95% 0.5 mm 0 W/m2
02:10 17.8 °C 17.0 °C 1001.6 hPa NE 1.1 km/h 2.6 km/h 95% 0.3 mm 0 W/m2
02:15 17.7 °C 17.1 °C 1001.6 hPa Calm   3.5 km/h 96% 0.0 mm 0 W/m2
02:21 17.6 °C 17.1 °C 1001.6 hPa Calm   3.5 km/h 97% 0.0 mm 0 W/m2
02:27 17.5 °C 17.1 °C 1001.6 hPa Calm   3.5 km/h 97% 0.3 mm 0 W/m2
02:33 17.3 °C 16.8 °C 1001.6 hPa Calm   3.5 km/h 97% 0.3 mm 0 W/m2
02:40 17.2 °C 16.7 °C 1001.2 hPa Calm     97% 0.3 mm 0 W/m2
02:45 17.3 °C 16.8 °C 1001.6 hPa Calm   1.1 km/h 97% 0.3 mm 0 W/m2
02:51 17.0 °C 16.6 °C 1001.6 hPa Calm   1.1 km/h 97% 0.3 mm 0 W/m2
02:57 16.9 °C 16.6 °C 1001.6 hPa Calm   2.6 km/h 98% 0.3 mm 0 W/m2
03:03 17.0 °C 16.6 °C 1001.6 hPa Calm   2.6 km/h 97% 0.3 mm 0 W/m2
03:09 17.2 °C 16.7 °C 1001.6 hPa Calm   11.1 km/h 97% 0.3 mm 0 W/m2
03:15 17.2 °C 16.7 °C 1001.6 hPa NW 3.5 km/h 11.1 km/h 97% 0.3 mm 0 W/m2
03:21 17.3 °C 16.8 °C 1001.6 hPa WNW 3.5 km/h 9.7 km/h 97% 0.3 mm 0 W/m2
03:27 17.1 °C 16.6 °C 1001.6 hPa NW 5.0 km/h 9.7 km/h 97% 0.0 mm 0 W/m2
03:33 16.9 °C 16.6 °C 1001.6 hPa NNW 7.2 km/h 9.7 km/h 98% 0.0 mm 0 W/m2
03:40 16.7 °C 16.4 °C 1001.6 hPa NNW 12.2 km/h 23.3 km/h 98% 0.0 mm 0 W/m2
03:45 17.5 °C 15.3 °C 1001.6 hPa NNW 18.3 km/h 31.7 km/h 87% 0.0 mm 0 W/m2
03:51 17.9 °C 14.6 °C 1001.6 hPa NNW 14.8 km/h 31.7 km/h 81% 0.0 mm 0 W/m2
03:57 17.9 °C 14.2 °C 1001.6 hPa NW 12.2 km/h 27.0 km/h 79% 0.0 mm 0 W/m2
04:03 18.5 °C 13.4 °C 1001.6 hPa NNW 17.2 km/h 33.1 km/h 72% 0.0 mm 0 W/m2
04:10 18.8 °C 13.2 °C 1001.6 hPa NNW 18.3 km/h 33.1 km/h 70% 0.0 mm 0 W/m2
04:15 18.7 °C 13.1 °C 1001.6 hPa NW 19.5 km/h 30.6 km/h 70% 0.0 mm 0 W/m2
04:21 18.6 °C 12.6 °C 1001.6 hPa NNW 19.5 km/h 33.1 km/h 68% 0.0 mm 0 W/m2
04:27 18.6 °C 12.6 °C 1001.6 hPa North 15.8 km/h 33.1 km/h 68% 0.0 mm 0 W/m2
04:33 18.5 °C 12.1 °C 1001.9 hPa North 18.3 km/h 36.7 km/h 66% 0.0 mm 0 W/m2
04:40 18.3 °C 12.1 °C 1001.6 hPa NNW 17.2 km/h 36.7 km/h 67% 0.0 mm 0 W/m2
04:45 18.1 °C 11.9 °C 1001.6 hPa NW 14.8 km/h 28.0 km/h 67% 0.0 mm 0 W/m2
04:51 18.1 °C 11.7 °C 1001.9 hPa NNW 13.4 km/h 30.6 km/h 66% 0.0 mm 0 W/m2
04:57 18.0 °C 11.6 °C 1001.9 hPa NNW 6.1 km/h 30.6 km/h 66% 0.0 mm 0 W/m2
05:03 17.7 °C 11.3 °C 1001.9 hPa NNW 8.7 km/h 23.3 km/h 66% 0.0 mm 0 W/m2
05:10 17.7 °C 11.3 °C 1001.9 hPa NNW 11.1 km/h 23.3 km/h 66% 0.0 mm 0 W/m2
05:15 17.5 °C 11.3 °C 1001.9 hPa NNW 13.4 km/h 21.9 km/h 67% 0.0 mm 0 W/m2
05:21 17.5 °C 11.1 °C 1001.9 hPa North 8.7 km/h 20.9 km/h 66% 0.0 mm 0 W/m2
05:27 17.3 °C 11.1 °C 1001.9 hPa North 7.2 km/h 20.9 km/h 67% 0.0 mm 0 W/m2
05:33 17.1 °C 11.2 °C 1002.3 hPa NNW 3.5 km/h 13.4 km/h 68% 0.0 mm 0 W/m2
05:39 16.8 °C 11.3 °C 1002.3 hPa NNW 6.1 km/h 12.2 km/h 70% 0.0 mm 0 W/m2
05:45 16.7 °C 11.0 °C 1002.3 hPa North 5.0 km/h 17.2 km/h 69% 0.0 mm 0 W/m2
05:51 16.7 °C 11.0 °C 1002.3 hPa NNW 8.7 km/h 17.2 km/h 69% 0.0 mm 0 W/m2
05:57 16.7 °C 10.8 °C 1002.3 hPa NNW 9.7 km/h 23.3 km/h 68% 0.0 mm 0 W/m2
06:03 16.7 °C 10.8 °C 1002.6 hPa North 11.1 km/h 23.3 km/h 68% 0.0 mm 0 W/m2
06:09 16.8 °C 10.7 °C 1002.6 hPa North 15.8 km/h 27.0 km/h 67% 0.0 mm 0 W/m2
06:15 17.0 °C 10.6 °C 1002.6 hPa North 8.7 km/h 27.0 km/h 66% 0.0 mm 0 W/m2
06:21 17.0 °C 10.6 °C 1002.6 hPa North 6.1 km/h 24.5 km/h 66% 0.0 mm 0 W/m2
06:27 16.9 °C 10.5 °C 1002.9 hPa North 12.2 km/h 24.5 km/h 66% 0.0 mm 1 W/m2
06:33 16.9 °C 10.5 °C 1002.9 hPa North 14.8 km/h 23.3 km/h 66% 0.0 mm 4 W/m2
06:40 16.8 °C 10.4 °C 1002.9 hPa North 11.1 km/h 23.3 km/h 66% 0.0 mm 9 W/m2
06:45 16.8 °C 10.4 °C 1002.9 hPa NNE 5.0 km/h 19.5 km/h 66% 0.0 mm 15 W/m2
06:51 16.8 °C 10.4 °C 1002.9 hPa North 5.0 km/h 18.3 km/h 66% 0.0 mm 19 W/m2
06:57 16.7 °C 10.6 °C 1003.3 hPa NNW 6.1 km/h 17.2 km/h 67% 0.0 mm 82 W/m2
07:03 17.1 °C 10.7 °C 1003.3 hPa NNW 5.0 km/h 12.2 km/h 66% 0.0 mm 100 W/m2
07:09 17.2 °C 11.0 °C 1003.6 hPa NNW 5.0 km/h 11.1 km/h 67% 0.0 mm 121 W/m2
07:15 17.5 °C 11.1 °C 1003.3 hPa NNW 1.1 km/h 8.7 km/h 66% 0.0 mm 137 W/m2
07:21 18.0 °C 11.3 °C 1003.6 hPa NNW 11.1 km/h 14.8 km/h 65% 0.0 mm 154 W/m2
07:27 18.2 °C 11.3 °C 1003.6 hPa NNW 11.1 km/h 15.8 km/h 64% 0.0 mm 169 W/m2
07:33 18.3 °C 11.6 °C 1003.6 hPa North 12.2 km/h 19.5 km/h 65% 0.0 mm 186 W/m2
07:39 18.5 °C 11.6 °C 1003.9 hPa NNE 8.7 km/h 19.5 km/h 64% 0.0 mm 209 W/m2
07:45 18.6 °C 11.2 °C 1003.9 hPa North 8.7 km/h 19.5 km/h 62% 0.0 mm 229 W/m2
07:51 18.8 °C 11.4 °C 1004.3 hPa North 7.2 km/h 19.5 km/h 62% 0.0 mm 250 W/m2
07:57 18.9 °C 11.4 °C 1004.3 hPa NNW 5.0 km/h 20.9 km/h 62% 0.0 mm 269 W/m2
08:03 19.2 °C 11.5 °C 1004.3 hPa NNW 11.1 km/h 20.9 km/h 61% 0.0 mm 283 W/m2
08:10 19.1 °C 11.2 °C 1004.3 hPa North 13.4 km/h 18.3 km/h 60% 0.0 mm 290 W/m2
08:15 19.3 °C 11.6 °C 1004.6 hPa NNW 7.2 km/h 18.3 km/h 61% 0.0 mm 299 W/m2
08:21 19.7 °C 11.7 °C 1005.0 hPa NNW 2.6 km/h 12.2 km/h 60% 0.0 mm 312 W/m2
08:27 19.9 °C 11.9 °C 1005.0 hPa NNW 5.0 km/h 15.8 km/h 60% 0.0 mm 337 W/m2
08:35 20.2 °C 11.9 °C 1005.0 hPa NW 3.5 km/h 13.4 km/h 59% 0.0 mm 350 W/m2
08:41 20.0 °C 11.2 °C 1005.0 hPa NW 3.5 km/h 15.8 km/h 57% 0.0 mm 363 W/m2
08:47 20.3 °C 11.2 °C 1005.3 hPa NW 5.0 km/h 17.2 km/h 56% 0.0 mm 413 W/m2
08:53 20.5 °C 11.4 °C 1005.3 hPa NW 3.5 km/h 17.2 km/h 56% 0.0 mm 313 W/m2
08:59 20.6 °C 11.3 °C 1005.3 hPa NW 2.6 km/h 18.3 km/h 55% 0.0 mm 405 W/m2
09:05 20.6 °C 11.5 °C 1005.6 hPa NW 8.7 km/h 18.3 km/h 56% 0.0 mm 432 W/m2
09:11 20.6 °C 11.5 °C 1005.6 hPa NW 1.1 km/h 14.8 km/h 56% 0.0 mm 509 W/m2
09:17 20.8 °C 12.0 °C 1005.6 hPa NW 3.5 km/h 13.4 km/h 57% 0.0 mm 197 W/m2
09:23 21.0 °C 11.3 °C 1006.0 hPa NW 8.7 km/h 14.8 km/h 54% 0.0 mm 427 W/m2
09:29 20.6 °C 11.0 °C 1006.0 hPa NNW 17.2 km/h 24.5 km/h 54% 0.0 mm 455 W/m2
09:35 20.4 °C 11.1 °C 1006.0 hPa NW 11.1 km/h 24.5 km/h 55% 0.0 mm 420 W/m2
09:41 20.1 °C 11.1 °C 1006.0 hPa NW 7.2 km/h 21.9 km/h 56% 0.0 mm 212 W/m2
09:47 19.5 °C 10.8 °C 1006.0 hPa NNW 12.2 km/h 19.5 km/h 57% 0.0 mm 167 W/m2
09:53 19.1 °C 10.7 °C 1006.0 hPa NNW 8.7 km/h 19.5 km/h 58% 0.0 mm 165 W/m2
09:59 19.1 °C 10.7 °C 1005.6 hPa NNW 5.0 km/h 18.3 km/h 58% 0.0 mm 113 W/m2
10:05 20.0 °C 11.5 °C 1005.6 hPa NNW 6.1 km/h 18.3 km/h 58% 0.0 mm 102 W/m2
10:11 20.4 °C 11.1 °C 1005.6 hPa NW 11.1 km/h 18.3 km/h 55% 0.0 mm 98 W/m2
10:17 20.4 °C 11.1 °C 1005.6 hPa NW 13.4 km/h 21.9 km/h 55% 0.0 mm 107 W/m2
10:23 20.5 °C 10.9 °C 1005.6 hPa NW 13.4 km/h 24.5 km/h 54% 0.0 mm 108 W/m2
10:29 20.8 °C 11.2 °C 1005.6 hPa NW 19.5 km/h 33.1 km/h 54% 0.0 mm 90 W/m2
10:35 20.8 °C 11.2 °C 1006.0 hPa NW 9.7 km/h 34.3 km/h 54% 0.0 mm 117 W/m2
10:41 20.9 °C 11.3 °C 1006.0 hPa NW 9.7 km/h 21.9 km/h 54% 0.0 mm 537 W/m2
10:47 21.0 °C 10.8 °C 1006.0 hPa NW 19.5 km/h 28.0 km/h 52% 0.0 mm 498 W/m2
10:53 21.0 °C 10.8 °C 1006.0 hPa NW 12.2 km/h 29.4 km/h 52% 0.0 mm 556 W/m2
11:00 21.0 °C 10.8 °C 1006.0 hPa NNW 18.3 km/h 28.0 km/h 52% 0.0 mm 266 W/m2
11:05 20.4 °C 10.5 °C 1006.3 hPa NW 15.8 km/h 28.0 km/h 53% 0.0 mm 676 W/m2
11:11 20.5 °C 10.6 °C 1006.0 hPa NW 11.1 km/h 25.6 km/h 53% 0.0 mm 476 W/m2
11:17 20.6 °C 11.0 °C 1006.0 hPa NW 13.4 km/h 27.0 km/h 54% 0.0 mm 285 W/m2
11:23 20.4 °C 10.5 °C 1006.0 hPa NW 18.3 km/h 27.0 km/h 53% 0.0 mm 236 W/m2
11:29 20.2 °C 10.3 °C 1006.0 hPa NW 7.2 km/h 33.1 km/h 53% 0.0 mm 612 W/m2
11:35 20.5 °C 10.9 °C 1006.0 hPa NW 8.7 km/h 33.1 km/h 54% 0.0 mm 515 W/m2
11:41 20.8 °C 10.9 °C 1006.0 hPa NW 12.2 km/h 23.3 km/h 53% 0.0 mm 257 W/m2
11:47 20.6 °C 10.7 °C 1006.0 hPa NW 7.2 km/h 23.3 km/h 53% 0.0 mm 296 W/m2
11:53 20.6 °C 10.7 °C 1005.6 hPa NW 12.2 km/h 20.9 km/h 53% 0.0 mm 228 W/m2
11:59 20.6 °C 10.7 °C 1005.6 hPa NW 8.7 km/h 23.3 km/h 53% 0.0 mm 482 W/m2
12:05 21.6 °C 11.3 °C 1005.6 hPa NW 11.1 km/h 23.3 km/h 52% 0.0 mm 281 W/m2
12:11 21.2 °C 10.4 °C 1005.6 hPa NW 8.7 km/h 18.3 km/h 50% 0.0 mm 262 W/m2
12:17 21.4 °C 10.3 °C 1005.6 hPa NNW 5.0 km/h 15.8 km/h 49% 0.0 mm 486 W/m2
12:23 22.3 °C 11.4 °C 1005.6 hPa NW 8.7 km/h 13.4 km/h 50% 0.0 mm 744 W/m2
12:30 22.6 °C 11.3 °C 1005.6 hPa WNW 9.7 km/h 18.3 km/h 49% 0.0 mm 618 W/m2
12:33 22.2 °C 10.1 °C 1005.6 hPa WNW 9.7 km/h 19.5 km/h 46% 0.0 mm 649 W/m2
12:40 21.9 °C 10.4 °C 1005.6 hPa WNW 12.2 km/h 19.5 km/h 48% 0.0 mm 217 W/m2
12:45 21.7 °C 10.6 °C 1005.3 hPa WNW 9.7 km/h 18.3 km/h 49% 0.0 mm 630 W/m2
12:51 22.4 °C 11.2 °C 1005.3 hPa WNW 8.7 km/h 15.8 km/h 49% 0.0 mm 237 W/m2
12:57 22.3 °C 11.4 °C 1005.3 hPa WNW 8.7 km/h 14.8 km/h 50% 0.0 mm 185 W/m2
13:03 22.4 °C 11.2 °C 1005.3 hPa NW 6.1 km/h 14.8 km/h 49% 0.0 mm 584 W/m2
13:09 22.7 °C 11.2 °C 1005.0 hPa WNW 6.1 km/h 17.2 km/h 48% 0.0 mm 534 W/m2
13:15 22.8 °C 9.9 °C 1005.0 hPa NW 20.9 km/h 29.4 km/h 44% 0.0 mm 366 W/m2
13:21 22.8 °C 9.9 °C 1004.6 hPa NW 21.9 km/h 29.4 km/h 44% 0.0 mm 390 W/m2
13:27 22.5 °C 9.7 °C 1005.0 hPa NNW 13.4 km/h 30.6 km/h 44% 0.0 mm 397 W/m2
13:33 22.7 °C 9.8 °C 1004.6 hPa NNW 15.8 km/h 30.6 km/h 44% 0.0 mm 439 W/m2
13:39 22.8 °C 9.6 °C 1005.0 hPa NNW 19.5 km/h 34.3 km/h 43% 0.0 mm 453 W/m2
13:45 22.7 °C 9.5 °C 1004.6 hPa NW 18.3 km/h 34.3 km/h 43% 0.0 mm 448 W/m2
13:51 23.2 °C 10.6 °C 1005.0 hPa NW 17.2 km/h 29.4 km/h 45% 0.0 mm 311 W/m2
13:57 22.2 °C 9.1 °C 1005.0 hPa NNW 11.1 km/h 24.5 km/h 43% 0.0 mm 202 W/m2
14:03 21.8 °C 9.3 °C 1004.6 hPa NNW 13.4 km/h 21.9 km/h 45% 0.0 mm 244 W/m2
14:09 21.7 °C 9.3 °C 1005.0 hPa NNW 7.2 km/h 19.5 km/h 45% 0.0 mm 426 W/m2
14:15 21.7 °C 9.6 °C 1005.0 hPa NNW 8.7 km/h 24.5 km/h 46% 0.0 mm 324 W/m2
14:21 21.6 °C 9.2 °C 1005.0 hPa NNW 9.7 km/h 31.7 km/h 45% 0.0 mm 171 W/m2
14:27 21.4 °C 9.3 °C 1005.0 hPa NW 9.7 km/h 31.7 km/h 46% 0.0 mm 189 W/m2
14:33 21.7 °C 9.9 °C 1005.3 hPa NW 8.7 km/h 20.9 km/h 47% 0.0 mm 203 W/m2
14:39 22.0 °C 10.5 °C 1005.3 hPa WNW 13.4 km/h 17.2 km/h 48% 0.0 mm 212 W/m2
14:45 21.7 °C 10.2 °C 1005.3 hPa WNW 9.7 km/h 19.5 km/h 48% 0.0 mm 171 W/m2
14:51 21.2 °C 10.7 °C 1005.6 hPa WNW 8.7 km/h 21.9 km/h 51% 0.0 mm 174 W/m2
14:57 21.6 °C 10.4 °C 1005.6 hPa NW 7.2 km/h 21.9 km/h 49% 0.0 mm 116 W/m2
15:03 21.6 °C 10.4 °C 1005.3 hPa NW 8.7 km/h 21.9 km/h 49% 0.0 mm 338 W/m2
15:09 21.8 °C 10.9 °C 1005.6 hPa WNW 12.2 km/h 21.9 km/h 50% 0.0 mm 288 W/m2
15:15 22.0 °C 9.9 °C 1005.3 hPa NW 14.8 km/h 28.0 km/h 46% 0.0 mm 359 W/m2
15:21 22.2 °C 10.1 °C 1005.3 hPa NW 15.8 km/h 28.0 km/h 46% 0.0 mm 335 W/m2
15:27 21.7 °C 9.6 °C 1005.3 hPa NW 12.2 km/h 34.3 km/h 46% 0.0 mm 312 W/m2
15:33 21.8 °C 9.7 °C 1005.6 hPa NW 15.8 km/h 29.4 km/h 46% 0.0 mm 294 W/m2
15:39 21.7 °C 9.9 °C 1005.6 hPa NW 15.8 km/h 30.6 km/h 47% 0.0 mm 279 W/m2
15:45 21.8 °C 9.7 °C 1005.3 hPa NW 15.8 km/h 30.6 km/h 46% 0.0 mm 271 W/m2
15:51 21.2 °C 10.1 °C 1005.3 hPa NW 15.8 km/h 28.0 km/h 49% 0.0 mm 67 W/m2
15:57 20.3 °C 9.2 °C 1005.6 hPa NNW 19.5 km/h 30.6 km/h 49% 0.0 mm 97 W/m2
16:03 20.8 °C 9.7 °C 1005.6 hPa NNW 13.4 km/h 30.6 km/h 49% 0.0 mm 114 W/m2
16:09 20.5 °C 9.7 °C 1005.6 hPa NNW 13.4 km/h 25.6 km/h 50% 0.0 mm 142 W/m2
16:15 20.8 °C 9.7 °C 1005.6 hPa NNW 13.4 km/h 30.6 km/h 49% 0.0 mm 166 W/m2
16:21 21.1 °C 9.4 °C 1005.6 hPa NNW 18.3 km/h 29.4 km/h 47% 0.0 mm 151 W/m2
16:27 21.2 °C 9.1 °C 1005.6 hPa NNW 15.8 km/h 29.4 km/h 46% 0.0 mm 134 W/m2
16:33 21.1 °C 8.7 °C 1006.0 hPa NW 12.2 km/h 29.4 km/h 45% 0.0 mm 119 W/m2
16:55 20.1 °C 8.8 °C 1006.3 hPa NW 9.7 km/h 15.8 km/h 48% 0.0 mm 51 W/m2
17:01 19.7 °C 8.4 °C 1006.3 hPa NW 11.1 km/h 20.9 km/h 48% 0.0 mm 51 W/m2
17:07 19.7 °C 8.4 °C 1006.3 hPa NNW 11.1 km/h 20.9 km/h 48% 0.0 mm 47 W/m2
17:13 19.5 °C 8.5 °C 1006.0 hPa NNW 12.2 km/h 25.6 km/h 49% 0.0 mm 30 W/m2
17:19 19.2 °C 8.6 °C 1006.0 hPa NNW 12.2 km/h 25.6 km/h 50% 0.0 mm 23 W/m2
17:25 19.4 °C 8.7 °C 1006.3 hPa NW 12.2 km/h 20.9 km/h 50% 0.0 mm 23 W/m2
17:31 19.4 °C 9.0 °C 1006.3 hPa NNW 6.1 km/h 20.9 km/h 51% 0.0 mm 21 W/m2
17:37 19.6 °C 8.9 °C 1006.3 hPa NW 13.4 km/h 18.3 km/h 50% 0.0 mm 15 W/m2
17:43 19.2 °C 8.8 °C 1006.3 hPa NW 6.1 km/h 18.3 km/h 51% 0.0 mm 12 W/m2
17:49 18.7 °C 9.2 °C 1006.7 hPa NW 7.2 km/h 14.8 km/h 54% 0.0 mm 7 W/m2
17:55 18.4 °C 9.2 °C 1006.7 hPa NW 5.0 km/h 12.2 km/h 55% 0.0 mm 4 W/m2
18:01 18.1 °C 8.9 °C 1006.7 hPa NW 5.0 km/h 9.7 km/h 55% 0.0 mm 0 W/m2
18:07 17.9 °C 9.0 °C 1006.7 hPa NW 5.0 km/h 9.7 km/h 56% 0.0 mm 0 W/m2
18:13 17.7 °C 8.8 °C 1007.0 hPa NW 5.0 km/h 9.7 km/h 56% 0.0 mm 0 W/m2
18:19 17.4 °C 9.1 °C 1007.0 hPa NW 5.0 km/h 9.7 km/h 58% 0.0 mm 0 W/m2
18:25 17.1 °C 9.3 °C 1007.0 hPa NW 3.5 km/h 9.7 km/h 60% 0.0 mm 0 W/m2
18:31 16.8 °C 9.5 °C 1007.3 hPa Calm   8.7 km/h 62% 0.0 mm 0 W/m2
18:37 16.5 °C 9.4 °C 1007.3 hPa Calm   5.0 km/h 63% 0.0 mm 0 W/m2
18:43 16.3 °C 9.3 °C 1007.3 hPa Calm     63% 0.0 mm 0 W/m2
18:49 16.3 °C 9.5 °C 1007.3 hPa Calm     64% 0.0 mm 0 W/m2
18:55 16.3 °C 9.9 °C 1007.7 hPa Calm     66% 0.0 mm 0 W/m2
19:01 16.3 °C 10.2 °C 1007.7 hPa Calm     67% 0.0 mm 0 W/m2
19:07 16.2 °C 10.1 °C 1007.7 hPa Calm     67% 0.0 mm 0 W/m2
19:13 16.2 °C 10.5 °C 1008.0 hPa Calm     69% 0.0 mm 0 W/m2
19:19 16.2 °C 10.3 °C 1008.0 hPa Calm     68% 0.0 mm 0 W/m2
19:25 16.1 °C 10.6 °C 1008.0 hPa Calm     70% 0.0 mm 0 W/m2
19:31 16.0 °C 10.6 °C 1008.4 hPa Calm     70% 0.0 mm 0 W/m2
19:37 16.2 °C 10.1 °C 1008.4 hPa WNW 7.2 km/h 12.2 km/h 67% 0.0 mm 0 W/m2
19:43 17.0 °C 9.7 °C 1008.7 hPa WNW 8.7 km/h 17.2 km/h 62% 0.0 mm 0 W/m2
19:49 17.2 °C 9.9 °C 1008.7 hPa NW 7.2 km/h 20.9 km/h 62% 0.0 mm 0 W/m2
19:55 17.0 °C 9.7 °C 1008.7 hPa NW 13.4 km/h 20.9 km/h 62% 0.0 mm 0 W/m2
20:02 16.9 °C 10.1 °C 1008.4 hPa NW 1.1 km/h 20.9 km/h 64% 0.0 mm 0 W/m2
20:03 16.8 °C 9.9 °C 1008.4 hPa NW 6.1 km/h 20.9 km/h 64% 0.0 mm 0 W/m2
20:09 16.5 °C 9.9 °C 1008.4 hPa NW 5.0 km/h 9.7 km/h 65% 0.0 mm 0 W/m2
20:15 16.2 °C 9.8 °C 1008.7 hPa NW 8.7 km/h 13.4 km/h 66% 0.0 mm 0 W/m2
20:21 16.1 °C 9.8 °C 1008.4 hPa NW 12.2 km/h 19.5 km/h 66% 0.0 mm 0 W/m2
20:27 16.2 °C 9.6 °C 1008.4 hPa NNW 8.7 km/h 27.0 km/h 65% 0.0 mm 0 W/m2
20:33 16.2 °C 9.6 °C 1008.7 hPa NW 5.0 km/h 27.0 km/h 65% 0.0 mm 0 W/m2
20:39 16.1 °C 9.5 °C 1008.7 hPa NW 8.7 km/h 18.3 km/h 65% 0.0 mm 0 W/m2
20:45 16.1 °C 9.5 °C 1008.7 hPa NNW 7.2 km/h 17.2 km/h 65% 0.0 mm 0 W/m2
20:51 15.9 °C 9.8 °C 1008.7 hPa NNW 12.2 km/h 17.2 km/h 67% 0.0 mm 0 W/m2
20:57 15.7 °C 9.8 °C 1008.7 hPa NNW 14.8 km/h 21.9 km/h 68% 0.0 mm 0 W/m2
21:03 15.6 °C 9.9 °C 1009.0 hPa NNW 7.2 km/h 21.9 km/h 69% 0.0 mm 0 W/m2
21:10 15.5 °C 9.6 °C 1009.0 hPa NNW 3.5 km/h 18.3 km/h 68% 0.0 mm 0 W/m2
21:15 15.7 °C 9.4 °C 1009.0 hPa NNW 7.2 km/h 11.1 km/h 66% 0.0 mm 0 W/m2
21:21 15.7 °C 9.4 °C 1009.4 hPa NNW 9.7 km/h 18.3 km/h 66% 0.0 mm 0 W/m2
21:27 15.7 °C 9.4 °C 1009.0 hPa NNW 9.7 km/h 18.3 km/h 66% 0.0 mm 0 W/m2
21:33 15.6 °C 9.3 °C 1009.0 hPa NNW 7.2 km/h 14.8 km/h 66% 0.0 mm 0 W/m2
21:39 15.5 °C 9.2 °C 1009.4 hPa NNW 9.7 km/h 15.8 km/h 66% 0.0 mm 0 W/m2
21:45 15.5 °C 8.9 °C 1009.4 hPa NW 6.1 km/h 18.3 km/h 65% 0.0 mm 0 W/m2
21:51 15.5 °C 8.9 °C 1009.4 hPa NW 5.0 km/h 18.3 km/h 65% 0.0 mm 0 W/m2
21:57 15.5 °C 9.2 °C 1009.4 hPa NNW 3.5 km/h 12.2 km/h 66% 0.0 mm 0 W/m2
22:03 15.4 °C 9.1 °C 1009.4 hPa North 7.2 km/h 13.4 km/h 66% 0.0 mm 0 W/m2
22:09 15.4 °C 9.1 °C 1009.4 hPa North 6.1 km/h 13.4 km/h 66% 0.0 mm 0 W/m2
22:15 15.3 °C 9.0 °C 1009.4 hPa North 7.2 km/h 17.2 km/h 66% 0.0 mm 0 W/m2
22:21 15.3 °C 9.0 °C 1009.4 hPa North 8.7 km/h 17.2 km/h 66% 0.0 mm 0 W/m2
22:27 15.2 °C 9.1 °C 1009.4 hPa North 5.0 km/h 13.4 km/h 67% 0.0 mm 0 W/m2
22:33 14.9 °C 9.3 °C 1009.4 hPa NNW 6.1 km/h 12.2 km/h 69% 0.0 mm 0 W/m2
22:39 14.8 °C 9.4 °C 1009.4 hPa NNW 6.1 km/h 13.4 km/h 70% 0.0 mm 0 W/m2
22:45 14.6 °C 9.2 °C 1009.4 hPa North 6.1 km/h 13.4 km/h 70% 0.0 mm 0 W/m2
22:51 14.5 °C 9.3 °C 1009.4 hPa NNW 5.0 km/h 11.1 km/h 71% 0.0 mm 0 W/m2
22:57 14.3 °C 9.1 °C 1009.4 hPa NNW 3.5 km/h 8.7 km/h 71% 0.0 mm 0 W/m2
23:03 14.2 °C 9.2 °C 1009.4 hPa NNW 1.1 km/h 8.7 km/h 72% 0.0 mm 0 W/m2
23:10 14.1 °C 9.1 °C 1009.4 hPa Calm   8.7 km/h 72% 0.0 mm 0 W/m2
23:15 13.8 °C 9.3 °C 1009.4 hPa Calm   5.0 km/h 74% 0.0 mm 0 W/m2
23:21 13.7 °C 9.3 °C 1009.4 hPa North 3.5 km/h 5.0 km/h 75% 0.0 mm 0 W/m2
23:27 13.6 °C 9.4 °C 1009.4 hPa Calm   6.1 km/h 76% 0.0 mm 0 W/m2
23:33 13.4 °C 9.3 °C 1009.4 hPa NNW 3.5 km/h 6.1 km/h 76% 0.0 mm 0 W/m2
23:40 13.3 °C 9.3 °C 1009.4 hPa NNW 1.1 km/h 6.1 km/h 77% 0.0 mm 0 W/m2
23:45 13.1 °C 9.2 °C 1009.7 hPa Calm   5.0 km/h 77% 0.0 mm 0 W/m2
23:51 13.1 °C 9.2 °C 1009.7 hPa Calm   2.6 km/h 77% 0.0 mm 0 W/m2
23:57 12.9 °C 9.2 °C 1009.7 hPa Calm     78% 0.0 mm 0 W/m2
Northern Hawkes Bay. New Zealand Historic Data
Compliments of Weather Underground - 2 mb